Time;durP1;ratioP1;P1;durP2;ratioP2;P2;SDS_P1;SDS_P2;PMS_P1;PMS_P2;Temp;Humidity;BMP_temperature;BMP_pressure;BME280_temperature;BME280_humidity;BME280_pressure;Samples;Min_cycle;Max_cycle;Signal;HPM_P1;HPM_P2
2022/04/28 00:01:39;;;;;;;7.20;6.03;;;9.80;90.20;;;;;;21081123;28;20218;-70
2022/04/28 00:11:41;;;;;;;8.17;5.53;;;9.60;90.20;;;;;;21080401;28;20237;-73
2022/04/28 00:21:43;;;;;;;6.93;5.70;;;9.40;90.60;;;;;;21073782;28;20234;-65
2022/04/28 00:31:45;;;;;;;11.33;6.43;;;9.40;90.60;;;;;;21077523;28;20235;-73
2022/04/28 00:41:47;;;;;;;8.40;5.77;;;9.40;91.00;;;;;;21078601;28;20715;-73
2022/04/28 00:51:49;;;;;;;9.87;5.80;;;9.10;91.00;;;;;;21077327;28;20287;-72
2022/04/28 01:01:51;;;;;;;10.20;5.90;;;9.10;91.30;;;;;;21078044;28;20211;-73
2022/04/28 01:11:53;;;;;;;7.83;6.03;;;9.10;91.20;;;;;;21077123;28;20334;-72
2022/04/28 01:21:56;;;;;;;7.30;6.10;;;9.10;91.50;;;;;;21076842;28;20289;-73
2022/04/28 01:31:58;;;;;;;10.10;6.17;;;9.10;91.80;;;;;;21077215;28;20303;-72
2022/04/28 01:42:00;;;;;;;7.83;6.03;;;9.00;91.70;;;;;;21075113;28;20219;-69
2022/04/28 02:02:36;;;;;;;8.53;6.40;;;8.80;91.90;;;;;;21064957;28;20202;-66
2022/04/28 02:12:38;;;;;;;8.43;6.40;;;8.60;92.00;;;;;;21089452;28;20239;-68
2022/04/28 02:22:40;;;;;;;8.00;6.47;;;8.50;92.00;;;;;;21081796;28;20288;-72
2022/04/28 02:43:02;;;;;;;8.07;6.77;;;8.50;92.30;;;;;;21087256;28;20203;-69
2022/04/28 02:53:04;;;;;;;10.73;6.50;;;8.30;92.30;;;;;;21086774;28;20238;-66
2022/04/28 03:03:06;;;;;;;8.70;6.50;;;8.30;92.60;;;;;;21086543;28;20217;-67
2022/04/28 03:13:08;;;;;;;9.17;7.37;;;8.20;92.40;;;;;;21085122;28;20263;-67
2022/04/28 03:23:14;;;;;;;10.97;6.57;;;8.00;92.70;;;;;;21085741;28;20626;-66
2022/04/28 03:33:17;;;;;;;7.53;6.53;;;7.90;92.70;;;;;;21084179;28;20325;-66
2022/04/28 03:43:18;;;;;;;8.60;6.93;;;7.70;92.80;;;;;;21087009;28;20257;-70
2022/04/28 03:53:20;;;;;;;10.63;6.70;;;7.70;93.00;;;;;;21084662;28;20260;-68
2022/04/28 04:03:22;;;;;;;10.83;7.07;;;7.70;93.30;;;;;;21084126;28;20546;-70
2022/04/28 04:13:24;;;;;;;12.67;6.83;;;7.70;93.10;;;;;;21079546;28;20239;-68
2022/04/28 04:23:25;;;;;;;10.67;7.27;;;7.70;93.00;;;;;;21075255;28;20628;-65
2022/04/28 04:33:28;;;;;;;9.97;6.93;;;;;;;;;;21077196;28;20284;-65
2022/04/28 04:43:30;;;;;;;12.17;6.87;;;7.70;93.10;;;;;;21080361;28;20305;-65
2022/04/28 04:53:32;;;;;;;13.53;6.83;;;7.70;93.30;;;;;;21054571;28;20223;-69
2022/04/28 05:03:34;;;;;;;10.20;6.97;;;7.90;93.30;;;;;;20991687;28;20218;-71
2022/04/28 05:13:36;;;;;;;18.43;7.33;;;8.30;93.20;;;;;;20994354;28;20656;-72
2022/04/28 05:23:38;;;;;;;36.50;18.43;;;8.40;93.20;;;;;;20993195;28;20711;-72
2022/04/28 05:33:42;;;;;;;13.60;7.00;;;8.50;93.30;;;;;;20997149;28;20236;-64
2022/04/28 05:54:04;;;;;;;19.87;7.03;;;8.70;93.80;;;;;;21089162;28;20292;-64
2022/04/28 06:04:06;;;;;;;17.93;7.93;;;9.30;93.50;;;;;;21089823;28;20205;-62
2022/04/28 06:14:13;;;;;;;20.37;8.10;;;9.40;93.60;;;;;;21089279;28;20232;-66
2022/04/28 06:24:14;;;;;;;19.70;8.20;;;9.70;93.50;;;;;;21087424;28;20298;-62
2022/04/28 06:34:16;;;;;;;15.70;8.27;;;9.90;93.70;;;;;;21087359;28;20243;-65
2022/04/28 06:44:18;;;;;;;22.73;8.23;;;10.20;93.10;;;;;;21084836;28;20203;-63
2022/04/28 06:54:19;;;;;;;14.30;8.20;;;10.40;92.50;;;;;;21084998;28;20283;-63
2022/04/28 07:04:25;;;;;;;13.20;9.07;;;11.10;92.00;;;;;;21082500;28;20298;-63
2022/04/28 07:14:27;;;;;;;13.73;7.20;;;11.50;91.40;;;;;;21082386;28;20241;-64
2022/04/28 07:24:29;;;;;;;21.40;8.83;;;11.70;91.00;;;;;;21079774;28;20783;-64
2022/04/28 07:34:32;;;;;;;14.70;7.03;;;12.00;90.20;;;;;;21079854;28;20236;-64
2022/04/28 07:44:35;;;;;;;12.47;7.23;;;12.50;89.80;;;;;;21075763;28;20211;-63
2022/04/28 07:54:38;;;;;;;13.13;7.63;;;12.60;88.60;;;;;;21077122;28;20318;-63
2022/04/28 08:04:41;;;;;;;13.57;7.20;;;13.00;88.30;;;;;;21082330;28;20619;-71
2022/04/28 08:14:43;;;;;;;11.23;7.37;;;13.40;87.20;;;;;;21080712;28;20267;-63
2022/04/28 08:24:49;;;;;;;11.33;6.90;;;13.90;85.20;;;;;;21079130;28;20287;-67
2022/04/28 08:34:51;;;;;;;10.23;6.27;;;14.10;83.50;;;;;;21077434;28;20229;-70
2022/04/28 08:44:58;;;;;;;7.53;5.97;;;14.60;80.30;;;;;;21077765;28;20206;-63
2022/04/28 08:55:02;;;;;;;9.43;6.00;;;14.90;78.90;;;;;;21077790;28;20765;-74
2022/04/28 09:05:07;;;;;;;8.47;6.20;;;15.10;77.50;;;;;;21077047;28;20220;-63
2022/04/28 09:15:12;;;;;;;10.13;6.20;;;15.40;76.10;;;;;;21092440;28;20236;-63
2022/04/28 09:25:14;;;;;;;11.20;6.50;;;15.60;75.10;;;;;;21093724;28;20244;-64
2022/04/28 09:35:16;;;;;;;7.80;5.20;;;16.00;71.10;;;;;;21093162;28;20717;-64
2022/04/28 09:45:22;;;;;;;7.40;4.97;;;16.20;68.70;;;;;;21085063;28;20743;-67
2022/04/28 09:55:25;;;;;;;7.60;5.20;;;16.40;65.80;;;;;;21088077;28;20257;-64
2022/04/28 10:05:28;;;;;;;8.50;5.63;;;16.80;63.10;;;;;;21089698;28;20293;-66
2022/04/28 10:15:32;;;;;;;10.03;5.63;;;16.90;62.20;;;;;;21087604;28;20244;-70
2022/04/28 10:35:57;;;;;;;7.60;5.10;;;17.50;59.50;;;;;;21087509;28;20585;-65
2022/04/28 10:46:01;;;;;;;10.13;5.23;;;17.80;57.40;;;;;;21086700;28;20217;-63
2022/04/28 10:56:12;;;;;;;5.10;3.83;;;17.90;55.00;;;;;;21085982;28;20207;-62
2022/04/28 11:06:38;;;;;;;8.40;4.40;;;17.90;54.80;;;;;;21084638;28;20229;-62
2022/04/28 11:16:41;;;;;;;6.17;4.00;;;18.00;53.10;;;;;;21084593;28;20220;-65
2022/04/28 11:26:43;;;;;;;5.67;3.30;;;18.40;50.70;;;;;;21083130;28;20643;-63
2022/04/28 11:36:45;;;;;;;6.67;3.17;;;18.90;48.10;;;;;;21082311;28;20205;-64
2022/04/28 11:46:50;;;;;;;4.90;3.17;;;19.00;48.60;;;;;;21077780;28;20240;-69
2022/04/28 11:57:10;;;;;;;4.80;3.30;;;19.20;47.30;;;;;;21079058;28;20334;-63
2022/04/28 12:07:20;;;;;;;5.07;3.03;;;19.40;46.00;;;;;;21081055;28;20270;-71
2022/04/28 12:27:47;;;;;;;3.40;2.80;;;19.90;45.20;;;;;;21079163;28;20266;-71
2022/04/28 12:37:57;;;;;;;6.63;3.50;;;19.90;43.40;;;;;;21078523;28;20208;-64
2022/04/28 12:47:59;;;;;;;4.97;4.27;;;20.10;43.80;;;;;;21077360;28;20233;-63
2022/04/28 12:58:01;;;;;;;3.17;2.70;;;20.30;43.10;;;;;;21078145;28;20212;-69
2022/04/28 13:08:04;;;;;;;3.83;2.83;;;20.60;42.30;;;;;;21077153;28;20234;-66
2022/04/28 13:18:06;;;;;;;4.07;3.03;;;20.60;42.70;;;;;;21076718;28;20252;-69
2022/04/28 13:28:09;;;;;;;4.00;3.13;;;20.80;41.70;;;;;;21076017;28;20245;-69
2022/04/28 13:38:11;;;;;;;4.20;3.43;;;20.40;41.40;;;;;;21073785;28;20617;-69
2022/04/28 13:48:13;;;;;;;11.33;7.23;;;20.60;41.00;;;;;;21068248;28;20238;-68
2022/04/28 13:58:15;;;;;;;5.43;3.07;;;21.90;40.90;;;;;;21083433;28;20305;-65
2022/04/28 14:08:17;;;;;;;4.03;2.60;;;24.70;38.20;;;;;;21088800;28;20693;-72
2022/04/28 14:18:19;;;;;;;2.50;2.30;;;26.90;35.40;;;;;;21087778;28;20733;-70
2022/04/28 14:28:22;;;;;;;3.13;2.40;;;27.00;35.40;;;;;;21087105;28;20249;-70
2022/04/28 14:38:24;;;;;;;9.63;3.22;;;29.00;32.20;;;;;;21086420;28;20213;-73
2022/04/28 14:48:26;;;;;;;5.28;3.10;;;29.90;29.40;;;;;;21085259;28;20284;-68
2022/04/28 14:58:37;;;;;;;5.15;2.95;;;28.50;29.50;;;;;;21087523;28;20638;-72
2022/04/28 15:08:39;;;;;;;4.50;2.50;;;29.50;29.20;;;;;;21084350;28;20291;-72
2022/04/28 15:18:41;;;;;;;6.18;3.17;;;27.90;29.40;;;;;;21083905;28;20205;-72
2022/04/28 15:28:42;;;;;;;5.07;3.30;;;28.00;29.60;;;;;;21083803;28;20253;-73
2022/04/28 15:38:47;;;;;;;11.03;2.90;;;25.30;30.60;;;;;;21082856;28;20225;-74
2022/04/28 15:48:48;;;;;;;3.40;2.80;;;25.60;32.90;;;;;;21042155;28;20230;-76
2022/04/28 15:58:50;;;;;;;5.32;2.83;;;26.00;33.60;;;;;;21078000;28;20651;-68
2022/04/28 16:08:52;;;;;;;3.28;2.58;;;26.40;33.70;;;;;;21056959;28;20316;-63
2022/04/28 16:18:54;;;;;;;16.23;3.30;;;25.30;34.30;;;;;;21090423;28;20213;-71
2022/04/28 16:28:56;;;;;;;4.10;3.03;;;25.10;35.50;;;;;;21079445;28;20242;-65
2022/04/28 16:38:57;;;;;;;4.93;2.80;;;25.90;32.30;;;;;;21077474;28;20199;-70
2022/04/28 16:48:59;;;;;;;10.93;3.00;;;25.60;32.60;;;;;;21078266;28;20243;-74
2022/04/28 16:59:19;;;;;;;15.77;4.03;;;25.30;32.80;;;;;;21078651;28;20207;-80
2022/04/28 17:09:21;;;;;;;8.03;3.30;;;24.60;34.50;;;;;;21077912;28;20234;-74
2022/04/28 17:19:23;;;;;;;3.10;2.70;;;22.90;35.40;;;;;;21077233;28;20210;-73
2022/04/28 17:29:26;;;;;;;3.73;2.53;;;22.50;36.00;;;;;;21086480;28;20230;-76
2022/04/28 17:39:27;;;;;;;3.00;2.43;;;21.40;35.70;;;;;;21091781;28;20206;-75
2022/04/28 17:49:29;;;;;;;2.63;2.43;;;20.80;36.40;;;;;;21078204;28;20240;-77
2022/04/28 18:09:53;;;;;;;5.37;3.00;;;19.90;37.00;;;;;;21088029;28;20238;-74
2022/04/28 18:19:54;;;;;;;15.07;9.73;;;19.20;37.20;;;;;;21114071;28;20286;-70
2022/04/28 18:29:56;;;;;;;4.37;3.30;;;18.70;39.80;;;;;;21065838;28;20231;-75
2022/04/28 18:50:18;;;;;;;7.47;4.53;;;18.10;41.40;;;;;;21083915;28;20752;-72
2022/04/28 19:00:20;;;;;;;6.43;3.60;;;17.80;43.20;;;;;;21042490;28;20222;-75
2022/04/28 19:10:22;;;;;;;7.33;3.60;;;17.20;45.50;;;;;;21055106;28;20250;-74
2022/04/28 19:20:24;;;;;;;10.40;5.10;;;16.90;46.50;;;;;;20996944;28;20243;-75
2022/04/28 19:30:26;;;;;;;8.23;4.20;;;16.80;47.50;;;;;;21048956;28;20707;-74
2022/04/28 19:40:28;;;;;;;5.80;4.13;;;16.30;48.80;;;;;;21080458;28;20207;-75
2022/04/28 19:50:30;;;;;;;6.77;4.30;;;15.80;50.90;;;;;;21079924;28;20230;-75
2022/04/28 20:00:32;;;;;;;7.73;4.60;;;15.70;52.20;;;;;;21060685;28;20217;-76
2022/04/28 20:10:34;;;;;;;8.77;4.63;;;15.20;53.80;;;;;;20993868;28;20238;-73
2022/04/28 20:20:36;;;;;;;6.67;4.63;;;15.10;54.50;;;;;;20998825;28;20235;-74
2022/04/28 20:30:37;;;;;;;6.67;4.73;;;14.90;55.60;;;;;;20999661;28;20250;-74
2022/04/28 20:40:41;;;;;;;6.50;4.73;;;14.50;57.00;;;;;;21061901;28;20304;-74
2022/04/28 20:50:44;;;;;;;6.63;5.20;;;14.10;58.20;;;;;;21075209;28;20243;-73
2022/04/28 21:00:47;;;;;;;9.07;5.80;;;14.10;58.80;;;;;;21074520;28;20210;-74
2022/04/28 21:10:49;;;;;;;7.70;5.10;;;14.00;59.70;;;;;;21090636;28;20236;-75
2022/04/28 21:20:51;;;;;;;10.90;6.90;;;13.70;60.40;;;;;;21090981;28;20234;-74
2022/04/28 21:30:53;;;;;;;7.00;5.00;;;13.50;61.60;;;;;;21088693;28;20300;-75
2022/04/28 21:40:55;;;;;;;6.47;5.73;;;13.20;63.20;;;;;;21090780;28;20202;-72
2022/04/28 21:50:56;;;;;;;9.33;5.43;;;13.10;64.00;;;;;;21089379;28;20292;-73
2022/04/28 22:00:58;;;;;;;7.17;5.30;;;12.80;65.70;;;;;;21088723;28;20678;-73
2022/04/28 22:11:13;;;;;;;10.40;5.33;;;12.60;66.70;;;;;;21087630;28;20237;-73
2022/04/28 22:21:14;;;;;;;7.30;5.77;;;12.50;67.90;;;;;;21076036;28;20285;-74
2022/04/28 22:31:16;;;;;;;10.13;5.93;;;12.20;69.30;;;;;;21087350;28;20622;-73
2022/04/28 22:41:18;;;;;;;8.43;5.70;;;12.20;69.80;;;;;;21088340;28;20209;-73
2022/04/28 22:51:20;;;;;;;8.20;5.90;;;12.10;70.70;;;;;;21087280;28;20631;-74
2022/04/28 23:01:21;;;;;;;23.90;11.33;;;11.90;71.50;;;;;;21086242;28;20264;-75
2022/04/28 23:11:23;;;;;;;9.77;5.87;;;12.00;72.20;;;;;;21085994;28;20234;-73
2022/04/28 23:21:25;;;;;;;7.83;6.67;;;11.70;72.80;;;;;;21083539;28;20234;-73
2022/04/28 23:31:27;;;;;;;12.50;7.43;;;11.60;73.40;;;;;;21083744;28;20296;-74
2022/04/28 23:51:55;;;;;;;7.67;6.10;;;11.30;74.40;;;;;;21082502;28;20255;-73
